Urban, Pennsylvania
Current Conditions -  °F | °C
As of 4:53 AM on Saturday 25 Oct 2014 (Local Time) from KSEG Reporting Station
Clear Clear  
Wind Chill: 39°   Ceiling: Unl
Heat Index: 39°   Visibility: 10mi
Dew Point: 37°   Wind: 0mph
Humidity: 93%   Direction: NA
Pressure: 29.93"   Gusts: NA
Location:  40.6872°N, 76.7831°W
Report Text: KSEG 250853Z AUTO 00000KT 10SM CLR 04/03 A2993 RMK AO2 SLP135 T00390028 58004
Loading
Personal Weather Stations






























Interactive Weather Map
Tropical Storm Tracking
New forecast layout! Learn more

10-Day Weather Forecast

Advertisements
Track Severe Weather on mobile